Time;durP1;ratioP1;P1;durP2;ratioP2;P2;SDS_P1;SDS_P2;PMS_P1;PMS_P2;Temp;Humidity;BMP_temperature;BMP_pressure;BME280_temperature;BME280_humidity;BME280_pressure;Samples;Min_cycle;Max_cycle;Signal;HPM_P1;HPM_P2
2023/07/10 00:00:22;;;;;;;11.10;8.10;;;16.20;1.00;;;;;;5015247;28;20111;-76
2023/07/10 00:02:51;;;;;;;11.68;7.32;;;16.00;1.00;;;;;;5071192;27;20060;-76
2023/07/10 00:05:21;;;;;;;10.13;8.30;;;16.00;1.00;;;;;;5021275;28;20033;-76
2023/07/10 00:07:49;;;;;;;10.38;8.05;;;15.90;1.00;;;;;;5013869;28;20066;-74
2023/07/10 00:10:18;;;;;;;9.32;6.78;;;15.90;1.00;;;;;;5009899;28;20041;-76
2023/07/10 00:12:46;;;;;;;12.15;7.70;;;15.80;66.90;;;;;;5010358;28;20050;-74
2023/07/10 00:15:15;;;;;;;12.85;7.47;;;15.70;99.90;;;;;;5012876;28;20042;-75
2023/07/10 00:17:45;;;;;;;12.43;8.60;;;15.70;1.00;;;;;;5017161;28;20034;-74
2023/07/10 00:20:18;;;;;;;10.90;7.00;;;15.70;1.00;;;;;;5027529;28;20101;-77
2023/07/10 00:22:46;;;;;;;13.48;7.25;;;15.70;1.00;;;;;;5031134;28;20056;-75
2023/07/10 00:25:16;;;;;;;9.98;7.00;;;15.70;1.00;;;;;;5030166;28;20056;-77
2023/07/10 00:27:44;;;;;;;9.88;7.00;;;15.80;99.90;;;;;;5015600;28;20080;-76
2023/07/10 00:30:18;;;;;;;7.82;6.82;;;15.80;1.00;;;;;;5022615;28;20125;-76
2023/07/10 00:32:51;;;;;;;10.38;6.93;;;15.80;1.00;;;;;;5009322;28;20141;-77
2023/07/10 00:35:19;;;;;;;10.43;7.47;;;15.80;1.00;;;;;;5008355;28;20087;-76
2023/07/10 00:37:49;;;;;;;12.18;7.43;;;15.70;1.00;;;;;;5008747;28;20042;-77
2023/07/10 00:40:20;;;;;;;11.15;7.95;;;15.60;99.90;;;;;;5010943;28;20054;-78
2023/07/10 00:42:49;;;;;;;11.65;7.28;;;15.60;1.00;;;;;;5012042;28;20044;-77
2023/07/10 00:45:18;;;;;;;10.90;7.68;;;15.60;1.00;;;;;;5011469;28;20038;-77
2023/07/10 00:47:56;;;;;;;12.30;7.93;;;15.60;1.00;;;;;;5011845;28;20046;-75
2023/07/10 00:50:31;;;;;;;10.95;7.80;;;15.70;1.00;;;;;;5010635;28;20057;-77
2023/07/10 00:53:01;;;;;;;11.60;7.90;;;15.70;99.90;;;;;;5011694;28;20049;-76
2023/07/10 00:55:33;;;;;;;11.40;7.68;;;15.60;99.90;;;;;;5014713;28;20038;-77
2023/07/10 00:58:14;;;;;;;9.73;8.00;;;15.60;99.90;;;;;;5015489;28;20041;-76
2023/07/10 01:00:59;;;;;;;9.68;7.38;;;15.50;1.00;;;;;;5031737;28;20509;-77
2023/07/10 01:03:28;;;;;;;10.25;8.07;;;15.50;99.90;;;;;;5012948;28;20062;-77
2023/07/10 01:06:00;;;;;;;10.73;7.55;;;15.40;1.00;;;;;;5016549;28;20041;-76
2023/07/10 01:08:28;;;;;;;13.48;7.85;;;15.30;1.00;;;;;;5020398;28;20042;-77
2023/07/10 01:10:55;;;;;;;9.75;7.03;;;15.20;1.00;;;;;;5016397;28;20136;-77
2023/07/10 01:13:23;;;;;;;9.85;7.35;;;15.20;1.00;;;;;;5018528;28;20045;-76
2023/07/10 01:15:50;;;;;;;11.73;7.82;;;15.20;1.00;;;;;;5018998;28;20038;-76
2023/07/10 01:18:19;;;;;;;10.88;7.15;;;15.20;1.00;;;;;;5012760;28;20045;-76
2023/07/10 01:20:51;;;;;;;9.63;7.18;;;15.20;1.00;;;;;;5011727;28;20042;-79
2023/07/10 01:23:21;;;;;;;9.65;6.95;;;15.10;99.90;;;;;;5010441;28;20077;-77
2023/07/10 01:25:52;;;;;;;13.10;7.75;;;15.20;99.90;;;;;;5012018;28;20058;-78
2023/07/10 01:28:21;;;;;;;9.23;7.55;;;15.20;1.00;;;;;;5024168;27;20034;-78
2023/07/10 01:30:52;;;;;;;10.85;7.28;;;15.30;1.00;;;;;;5134976;27;20047;-77
2023/07/10 01:33:23;;;;;;;9.75;7.43;;;15.20;1.00;;;;;;5134319;27;20617;-75
2023/07/10 01:35:54;;;;;;;11.20;7.82;;;15.10;1.00;;;;;;5137290;27;20046;-78
2023/07/10 01:38:29;;;;;;;9.07;7.38;;;15.00;31.30;;;;;;5136846;27;20042;-79
2023/07/10 01:41:00;;;;;;;13.18;7.97;;;14.90;99.90;;;;;;5134359;27;20036;-78
2023/07/10 01:43:27;;;;;;;10.35;7.80;;;15.00;99.90;;;;;;5110861;27;20141;-76
2023/07/10 01:45:56;;;;;;;11.18;7.35;;;15.00;99.90;;;;;;5034713;28;20148;-76
2023/07/10 01:48:29;;;;;;;11.65;7.68;;;14.90;99.90;;;;;;5034552;28;20048;-77
2023/07/10 01:50:56;;;;;;;10.57;7.15;;;15.00;99.90;;;;;;5031202;28;20041;-77
2023/07/10 01:53:25;;;;;;;10.73;7.68;;;15.10;99.90;;;;;;5032305;28;20378;-75
2023/07/10 01:55:53;;;;;;;12.00;7.15;;;15.20;7.50;;;;;;5032988;28;20041;-76
2023/07/10 01:58:21;;;;;;;14.90;8.40;;;15.20;1.00;;;;;;5031416;28;20042;-75
2023/07/10 02:00:49;;;;;;;10.75;7.60;;;15.10;1.00;;;;;;5034460;28;20493;-73
2023/07/10 02:03:16;;;;;;;12.65;7.90;;;15.10;1.00;;;;;;5153602;27;20043;-75
2023/07/10 02:05:45;;;;;;;12.35;7.70;;;15.00;99.90;;;;;;5150558;27;20051;-76
2023/07/10 02:08:12;;;;;;;12.80;7.60;;;15.00;99.90;;;;;;5146965;27;20130;-76
2023/07/10 02:10:41;;;;;;;10.32;8.05;;;15.10;39.80;;;;;;5141174;27;20070;-75
2023/07/10 02:13:09;;;;;;;11.35;8.63;;;15.10;1.00;;;;;;5149251;27;20078;-75
2023/07/10 02:15:36;;;;;;;11.90;8.52;;;15.20;99.90;;;;;;5149809;27;20102;-77
2023/07/10 02:18:05;;;;;;;9.93;7.22;;;15.10;99.90;;;;;;5146452;27;20398;-77
2023/07/10 02:20:33;;;;;;;9.85;7.20;;;15.10;1.00;;;;;;5135376;27;20058;-75
2023/07/10 02:23:00;;;;;;;9.52;7.38;;;15.10;1.00;;;;;;5136462;27;20051;-76
2023/07/10 02:25:27;;;;;;;8.95;6.93;;;15.00;1.00;;;;;;5135647;27;20046;-76
2023/07/10 02:27:56;;;;;;;10.23;7.22;;;15.10;1.00;;;;;;5135497;27;20031;-76
2023/07/10 02:30:24;;;;;;;9.55;7.40;;;15.00;1.00;;;;;;5035899;27;20132;-76
2023/07/10 02:32:51;;;;;;;12.25;7.50;;;14.80;1.00;;;;;;5034980;28;20056;-77
2023/07/10 02:35:21;;;;;;;8.93;7.15;;;14.80;99.90;;;;;;5029713;28;20038;-75
2023/07/10 02:37:48;;;;;;;10.75;7.40;;;14.70;99.90;;;;;;5031143;28;20521;-74
2023/07/10 02:40:16;;;;;;;13.35;7.50;;;14.70;99.90;;;;;;5029727;28;20037;-74
2023/07/10 02:42:44;;;;;;;10.80;7.35;;;14.80;99.90;;;;;;5030258;28;20065;-74
2023/07/10 02:45:14;;;;;;;9.23;6.47;;;14.80;99.90;;;;;;5044502;28;20049;-75
2023/07/10 02:47:41;;;;;;;11.07;7.07;;;14.80;99.90;;;;;;5049858;28;20101;-77
2023/07/10 02:50:11;;;;;;;8.13;6.35;;;14.80;99.90;;;;;;5050050;28;20033;-77
2023/07/10 02:52:38;;;;;;;8.93;6.80;;;14.80;99.90;;;;;;5043991;28;20041;-76
2023/07/10 02:55:06;;;;;;;9.60;7.28;;;14.70;99.90;;;;;;5030976;28;20046;-77
2023/07/10 02:57:34;;;;;;;10.10;6.82;;;14.70;99.90;;;;;;5032597;28;20044;-77
2023/07/10 03:00:01;;;;;;;9.25;7.03;;;14.60;99.90;;;;;;5035110;28;20042;-75
2023/07/10 03:02:32;;;;;;;9.18;6.63;;;14.60;99.90;;;;;;5114246;27;20043;-75
2023/07/10 03:05:00;;;;;;;9.15;6.60;;;14.60;99.90;;;;;;5152939;27;20063;-76
2023/07/10 03:07:27;;;;;;;11.38;6.88;;;14.50;99.90;;;;;;5153814;27;20023;-75
2023/07/10 03:09:55;;;;;;;10.23;6.55;;;14.50;99.90;;;;;;5153793;27;20410;-77
2023/07/10 03:12:24;;;;;;;8.15;6.70;;;14.60;99.90;;;;;;5148399;27;20049;-74
2023/07/10 03:14:52;;;;;;;8.73;6.97;;;14.50;99.90;;;;;;5135289;27;20456;-78
2023/07/10 03:17:19;;;;;;;7.93;6.38;;;14.50;99.90;;;;;;5134276;27;20035;-76
2023/07/10 03:19:48;;;;;;;9.15;7.03;;;14.50;99.90;;;;;;5133786;27;20035;-78
2023/07/10 03:22:16;;;;;;;9.75;6.53;;;14.50;99.90;;;;;;5136317;27;20067;-74
2023/07/10 03:24:44;;;;;;;8.77;6.78;;;14.60;99.90;;;;;;5136910;27;20518;-80
2023/07/10 03:27:12;;;;;;;9.55;6.85;;;14.70;99.90;;;;;;5137753;27;20035;-74
2023/07/10 03:29:39;;;;;;;9.25;7.57;;;14.80;1.00;;;;;;5070992;27;20132;-75
2023/07/10 03:32:09;;;;;;;13.27;10.25;;;14.90;1.00;;;;;;5039460;28;20106;-76
2023/07/10 03:34:37;;;;;;;10.13;8.98;;;14.90;8.50;;;;;;5033132;28;20045;-75
2023/07/10 03:37:08;;;;;;;11.90;8.70;;;14.90;1.00;;;;;;5035658;28;20053;-77
2023/07/10 03:39:35;;;;;;;11.68;8.20;;;14.90;1.00;;;;;;5031451;28;20046;-75
2023/07/10 03:42:03;;;;;;;10.75;7.80;;;14.80;99.90;;;;;;5035957;28;20048;-75
2023/07/10 03:44:30;;;;;;;10.88;7.63;;;14.70;1.00;;;;;;5031373;28;20569;-75
2023/07/10 03:46:58;;;;;;;11.27;8.32;;;14.70;1.00;;;;;;5030603;28;20053;-76
2023/07/10 03:49:26;;;;;;;12.30;8.27;;;14.70;1.00;;;;;;5131523;27;20103;-77
2023/07/10 03:51:54;;;;;;;9.65;7.65;;;14.90;1.00;;;;;;5137147;27;20041;-77
2023/07/10 03:54:22;;;;;;;10.43;7.25;;;15.00;99.90;;;;;;5148541;27;20102;-75
2023/07/10 03:56:51;;;;;;;9.85;6.93;;;15.10;1.00;;;;;;5140251;27;20050;-77
2023/07/10 03:59:19;;;;;;;8.38;6.85;;;15.20;99.90;;;;;;5139618;27;20567;-77
2023/07/10 04:01:47;;;;;;;12.27;7.47;;;15.40;99.90;;;;;;5140276;27;20059;-75
2023/07/10 04:04:14;;;;;;;8.98;6.18;;;15.90;1.00;;;;;;5137769;27;20039;-75
2023/07/10 04:06:44;;;;;;;8.98;5.80;;;16.50;1.00;;;;;;5136245;27;20126;-76
2023/07/10 04:09:12;;;;;;;10.07;5.93;;;17.00;1.00;;;;;;5134526;27;20088;-77
2023/07/10 04:11:41;;;;;;;10.13;6.10;;;17.50;1.00;;;;;;5133963;27;20520;-77
2023/07/10 04:14:09;;;;;;;8.35;6.15;;;17.80;99.90;;;;;;5135142;27;20131;-74
2023/07/10 04:16:36;;;;;;;11.45;6.13;;;17.60;99.90;;;;;;5134897;27;20105;-76
2023/07/10 04:19:04;;;;;;;9.82;6.47;;;17.90;1.00;;;;;;5132981;27;20410;-77
2023/07/10 04:21:33;;;;;;;10.55;5.85;;;18.40;1.00;;;;;;5134477;27;20149;-78
2023/07/10 04:24:04;;;;;;;8.57;5.78;;;18.80;99.90;;;;;;5133281;27;20071;-78
2023/07/10 04:26:33;;;;;;;9.07;5.30;;;19.50;1.00;;;;;;5134379;27;20038;-77
2023/07/10 04:29:04;;;;;;;8.32;5.75;;;20.00;1.00;;;;;;5092724;28;20070;-77
2023/07/10 04:31:31;;;;;;;11.32;6.97;;;20.00;1.00;;;;;;5032146;28;20096;-76
2023/07/10 04:33:59;;;;;;;8.32;5.82;;;20.10;1.00;;;;;;5040250;28;20042;-75
2023/07/10 04:36:27;;;;;;;7.60;5.60;;;20.50;99.90;;;;;;5041671;22;20049;-87
2023/07/10 04:38:55;;;;;;;9.20;5.93;;;21.00;99.90;;;;;;5029313;28;20045;-89
2023/07/10 04:41:24;;;;;;;7.97;5.55;;;21.20;99.90;;;;;;5030100;28;20068;-88
2023/07/10 04:43:52;;;;;;;8.80;6.30;;;21.60;99.90;;;;;;5028558;28;20397;-86
2023/07/10 04:46:22;;;;;;;7.75;6.07;;;22.00;99.90;;;;;;5030058;28;20041;-87
2023/07/10 04:48:49;;;;;;;10.07;6.07;;;22.50;99.90;;;;;;5044915;28;20052;-86
2023/07/10 04:51:18;;;;;;;9.73;6.78;;;22.60;99.90;;;;;;5048958;28;20049;-86
2023/07/10 04:53:46;;;;;;;9.95;6.40;;;22.90;80.20;;;;;;5049831;28;20102;-87
2023/07/10 04:56:15;;;;;;;10.70;6.97;;;23.60;26.50;;;;;;5050039;28;20064;-87
2023/07/10 04:58:49;;;;;;;15.95;6.72;;;24.40;1.00;;;;;;5050081;28;20115;-87
2023/07/10 05:01:16;;;;;;;8.60;6.03;;;24.90;1.00;;;;;;5046942;28;20385;-86
2023/07/10 05:03:45;;;;;;;13.95;6.35;;;25.20;1.00;;;;;;5033435;28;20064;-89
2023/07/10 05:06:13;;;;;;;9.32;6.95;;;25.40;1.00;;;;;;5031938;28;20472;-88
2023/07/10 05:08:40;;;;;;;11.88;6.00;;;25.60;1.00;;;;;;5032951;28;20048;-87
2023/07/10 05:11:07;;;;;;;10.63;6.75;;;25.30;1.00;;;;;;5027346;28;20054;-88
2023/07/10 05:13:35;;;;;;;10.70;5.93;;;25.30;1.00;;;;;;5028523;28;20045;-88
2023/07/10 05:16:03;;;;;;;8.80;6.70;;;26.30;1.00;;;;;;5030363;28;20506;-88
2023/07/10 05:18:30;;;;;;;11.15;6.60;;;27.10;1.00;;;;;;5035332;28;20033;-85
2023/07/10 05:21:01;;;;;;;10.10;6.10;;;27.90;1.00;;;;;;5035890;28;20130;-87
2023/07/10 05:23:30;;;;;;;11.13;7.20;;;28.70;1.00;;;;;;5030410;28;20061;-87
2023/07/10 05:25:59;;;;;;;11.65;7.57;;;29.00;1.00;;;;;;5032191;28;20409;-87
2023/07/10 05:28:27;;;;;;;8.35;6.13;;;29.40;1.00;;;;;;5042354;28;20060;-86
2023/07/10 05:30:55;;;;;;;7.68;6.47;;;29.90;1.00;;;;;;5054981;28;20052;-88
2023/07/10 05:33:24;;;;;;;12.60;7.57;;;30.50;1.00;;;;;;5055992;28;20075;-86
2023/07/10 05:35:53;;;;;;;12.10;8.40;;;31.00;1.00;;;;;;5055144;28;20183;-89
2023/07/10 05:38:24;;;;;;;13.88;10.35;;;31.40;1.00;;;;;;5055262;28;20489;-88
2023/07/10 05:40:52;;;;;;;11.98;9.52;;;31.60;1.00;;;;;;5044161;28;20038;-88
2023/07/10 05:43:19;;;;;;;11.52;8.93;;;31.40;1.00;;;;;;5030981;28;20516;-88
2023/07/10 05:45:47;;;;;;;10.90;9.65;;;31.80;1.00;;;;;;5014613;28;20065;-87
2023/07/10 05:48:15;;;;;;;10.48;7.60;;;31.90;1.00;;;;;;5025730;28;20044;-88
2023/07/10 05:50:46;;;;;;;10.48;7.70;;;31.60;1.00;;;;;;5032250;28;20041;-88
2023/07/10 05:53:14;;;;;;;13.65;7.60;;;31.20;1.00;;;;;;5034400;28;20045;-87
2023/07/10 05:55:46;;;;;;;13.90;8.55;;;31.60;1.00;;;;;;5034753;28;20437;-87
2023/07/10 05:58:13;;;;;;;13.05;8.52;;;31.40;1.00;;;;;;5035913;28;20049;-86
2023/07/10 06:00:42;;;;;;;11.05;7.97;;;31.40;1.00;;;;;;5049777;28;20037;-88
2023/07/10 06:03:10;;;;;;;11.88;8.00;;;31.50;1.00;;;;;;5016050;28;20050;-86
2023/07/10 06:05:37;;;;;;;10.23;8.45;;;31.60;1.00;;;;;;5033048;28;20041;-87
2023/07/10 06:08:05;;;;;;;12.93;9.95;;;31.80;1.00;;;;;;5034082;28;20408;-87
2023/07/10 06:10:34;;;;;;;11.93;7.65;;;32.20;1.00;;;;;;5038737;28;20041;-88
2023/07/10 06:13:03;;;;;;;11.63;7.43;;;32.40;1.00;;;;;;5041296;28;20049;-86
2023/07/10 06:15:32;;;;;;;8.52;7.65;;;32.70;1.00;;;;;;5037192;28;20592;-87
2023/07/10 06:18:00;;;;;;;10.90;7.40;;;32.80;1.00;;;;;;5038436;28;20076;-87
2023/07/10 06:20:27;;;;;;;9.02;6.95;;;32.90;1.00;;;;;;5032461;28;20512;-87
2023/07/10 06:22:55;;;;;;;9.85;8.05;;;32.90;1.00;;;;;;5033643;28;20708;-89
2023/07/10 06:25:23;;;;;;;11.23;8.00;;;32.90;1.00;;;;;;5035165;28;20041;-86
2023/07/10 06:27:50;;;;;;;15.77;9.75;;;32.80;1.00;;;;;;5040175;28;20033;-84
2023/07/10 06:30:19;;;;;;;11.40;7.90;;;32.60;1.00;;;;;;5053515;28;20044;-86
2023/07/10 06:32:46;;;;;;;28.98;10.30;;;31.40;1.00;;;;;;5055108;28;20496;-86
2023/07/10 06:35:14;;;;;;;15.38;9.05;;;30.70;1.00;;;;;;5056842;28;20075;-86
2023/07/10 06:37:41;;;;;;;15.07;8.70;;;30.40;1.00;;;;;;5046095;28;20087;-86
2023/07/10 06:40:11;;;;;;;16.58;9.13;;;29.60;1.00;;;;;;5036720;28;20041;-90
2023/07/10 06:42:39;;;;;;;11.15;8.63;;;28.80;1.00;;;;;;5035719;28;20052;-89
2023/07/10 06:45:13;;;;;;;12.57;10.65;;;28.90;1.00;;;;;;5034561;28;20092;-88
2023/07/10 06:47:44;;;;;;;17.20;9.85;;;27.80;1.00;;;;;;5039775;28;20040;-87
2023/07/10 06:50:13;;;;;;;14.27;11.25;;;27.20;1.00;;;;;;5055115;28;20041;-89
2023/07/10 06:52:42;;;;;;;14.13;11.95;;;26.80;1.00;;;;;;5053751;28;20037;-86
2023/07/10 06:55:12;;;;;;;13.70;9.70;;;26.70;1.00;;;;;;5049218;28;20038;-86
2023/07/10 06:57:40;;;;;;;12.77;9.85;;;26.90;1.00;;;;;;5047955;28;20065;-86
2023/07/10 07:00:10;;;;;;;10.23;7.88;;;26.70;1.00;;;;;;5036484;28;20505;-88
2023/07/10 07:02:38;;;;;;;12.20;9.98;;;26.40;1.00;;;;;;5032841;28;20045;-87
2023/07/10 07:05:09;;;;;;;17.65;11.68;;;26.50;1.00;;;;;;5032443;28;20045;-88
2023/07/10 07:07:38;;;;;;;18.15;10.70;;;26.40;1.00;;;;;;5034714;28;20042;-88
2023/07/10 07:10:08;;;;;;;13.68;9.98;;;26.70;1.00;;;;;;5032900;28;20046;-87
2023/07/10 07:12:35;;;;;;;15.50;12.48;;;27.30;1.00;;;;;;5033376;28;20531;-86
2023/07/10 07:15:04;;;;;;;13.52;10.15;;;27.50;1.00;;;;;;5051038;28;20045;-87
2023/07/10 07:17:32;;;;;;;15.65;11.65;;;27.50;1.00;;;;;;5043156;28;20064;-86
2023/07/10 07:19:59;;;;;;;14.43;9.75;;;27.50;1.00;;;;;;5043432;28;20053;-86
2023/07/10 07:22:28;;;;;;;11.45;9.60;;;27.50;1.00;;;;;;5046029;28;20144;-88
2023/07/10 07:24:55;;;;;;;12.85;10.65;;;27.40;1.00;;;;;;5041702;28;20052;-89
2023/07/10 07:27:23;;;;;;;14.02;10.50;;;27.70;1.00;;;;;;5034143;28;20041;-89
2023/07/10 07:29:52;;;;;;;13.55;10.55;;;28.10;1.00;;;;;;5046919;28;20058;-88
2023/07/10 07:32:21;;;;;;;16.02;10.38;;;28.40;1.00;;;;;;5062365;28;20135;-88
2023/07/10 07:34:50;;;;;;;15.35;10.93;;;28.70;1.00;;;;;;5037606;28;20079;-87
2023/07/10 07:37:20;;;;;;;10.52;8.68;;;29.00;1.00;;;;;;5037810;28;20076;-87
2023/07/10 07:39:49;;;;;;;11.15;8.95;;;29.00;1.00;;;;;;5036089;28;20052;-86
2023/07/10 07:42:16;;;;;;;10.05;8.85;;;29.20;1.00;;;;;;5030716;28;20051;-88
2023/07/10 07:44:43;;;;;;;10.27;8.15;;;29.30;1.00;;;;;;5032699;28;20099;-87
2023/07/10 07:47:11;;;;;;;10.65;8.80;;;29.40;1.00;;;;;;5036261;28;20045;-87
2023/07/10 07:49:38;;;;;;;12.85;8.55;;;29.40;1.00;;;;;;5038034;28;20063;-86
2023/07/10 07:52:07;;;;;;;10.15;8.32;;;28.80;1.00;;;;;;5031519;28;20057;-88
2023/07/10 07:54:35;;;;;;;19.85;9.77;;;28.10;1.00;;;;;;5030718;28;20064;-88
2023/07/10 07:57:04;;;;;;;13.20;8.60;;;27.50;1.00;;;;;;5032257;28;20448;-87
2023/07/10 07:59:31;;;;;;;14.57;8.98;;;27.10;1.00;;;;;;5029899;28;20041;-87
2023/07/10 08:01:59;;;;;;;13.68;8.80;;;27.20;1.00;;;;;;5029325;28;20088;-88
2023/07/10 08:04:26;;;;;;;17.48;9.77;;;27.60;1.00;;;;;;5031464;28;20041;-87
2023/07/10 08:06:53;;;;;;;16.15;10.52;;;27.50;1.00;;;;;;5030366;28;20053;-86
2023/07/10 08:09:21;;;;;;;14.32;9.93;;;27.40;1.00;;;;;;5031041;28;20121;-86
2023/07/10 08:11:49;;;;;;;11.93;9.88;;;27.70;1.00;;;;;;5029428;28;20053;-88
2023/07/10 08:14:18;;;;;;;15.25;10.05;;;27.90;1.00;;;;;;5028612;28;20045;-87
2023/07/10 08:16:45;;;;;;;16.00;10.60;;;27.90;1.00;;;;;;5030111;28;20493;-88
2023/07/10 08:19:13;;;;;;;16.00;10.45;;;27.70;1.00;;;;;;5028361;28;20471;-87
2023/07/10 08:21:40;;;;;;;16.30;10.38;;;28.00;1.00;;;;;;5029551;28;20042;-88
2023/07/10 08:24:07;;;;;;;15.23;10.48;;;28.20;1.00;;;;;;5030382;28;20063;-87
2023/07/10 08:26:35;;;;;;;18.15;11.10;;;28.60;1.00;;;;;;5030501;28;20064;-88
2023/07/10 08:29:25;;;;;;;13.95;10.07;;;29.00;1.00;;;;;;5032942;28;20033;-87
2023/07/10 08:31:53;;;;;;;15.32;10.02;;;28.60;1.00;;;;;;5030165;28;20124;-88
2023/07/10 08:34:21;;;;;;;14.73;10.45;;;28.80;1.00;;;;;;5030541;28;20037;-87
2023/07/10 08:36:49;;;;;;;17.80;12.80;;;28.90;1.00;;;;;;5029018;28;20041;-88
2023/07/10 08:39:17;;;;;;;20.00;12.75;;;29.00;1.00;;;;;;5028261;28;20085;-87
2023/07/10 08:41:44;;;;;;;14.18;10.23;;;29.10;1.00;;;;;;5031144;28;20096;-86
2023/07/10 08:44:15;;;;;;;14.32;9.77;;;29.00;1.00;;;;;;5030680;28;20042;-86
2023/07/10 08:46:44;;;;;;;13.05;10.05;;;29.10;1.00;;;;;;5032154;28;20051;-87
2023/07/10 08:49:17;;;;;;;15.63;10.25;;;28.80;1.00;;;;;;5033193;28;20107;-87
2023/07/10 08:51:53;;;;;;;15.90;10.65;;;28.80;1.00;;;;;;5031821;28;20139;-87
2023/07/10 08:54:20;;;;;;;;;;;29.00;1.00;;;;;;5032044;28;20253;-88
2023/07/10 08:56:55;;;;;;;16.02;11.00;;;29.30;1.00;;;;;;5032827;28;19921;-87
2023/07/10 08:59:35;;;;;;;;;;;29.40;1.00;;;;;;5032908;28;20119;-85
2023/07/10 09:02:04;;;;;;;13.98;9.15;;;29.50;1.00;;;;;;5035037;28;19921;-88
2023/07/10 09:04:32;;;;;;;16.70;11.57;;;29.60;1.00;;;;;;5034391;28;20103;-87
2023/07/10 09:07:03;;;;;;;14.45;9.02;;;29.60;1.00;;;;;;5035534;28;20045;-86
2023/07/10 09:09:37;;;;;;;18.08;9.98;;;29.10;1.00;;;;;;5031180;28;20568;-87
2023/07/10 09:12:08;;;;;;;15.73;10.43;;;29.20;1.00;;;;;;5033037;28;20041;-87
2023/07/10 09:14:42;;;;;;;15.27;12.40;;;29.30;1.00;;;;;;5034513;28;20034;-86
2023/07/10 09:17:20;;;;;;;17.27;12.07;;;29.40;1.00;;;;;;5033922;28;20055;-87
2023/07/10 09:19:53;;;;;;;15.25;9.57;;;29.50;1.00;;;;;;5034126;28;20038;-87
2023/07/10 09:22:21;;;;;;;12.15;8.77;;;29.60;1.00;;;;;;5033664;28;20107;-87
2023/07/10 09:24:49;;;;;;;9.25;7.50;;;29.80;1.00;;;;;;5037731;28;20580;-88
2023/07/10 09:27:16;;;;;;;11.57;7.82;;;30.00;1.00;;;;;;5037158;28;20068;-86
2023/07/10 09:29:49;;;;;;;13.45;8.85;;;30.00;1.00;;;;;;5046490;28;20064;-85
2023/07/10 09:32:20;;;;;;;9.60;7.40;;;29.80;1.00;;;;;;5049326;28;20500;-87
2023/07/10 09:34:51;;;;;;;10.77;8.05;;;29.70;1.00;;;;;;5036145;28;20451;-87
2023/07/10 09:37:20;;;;;;;13.40;8.18;;;29.70;1.00;;;;;;5033320;28;20316;-87
2023/07/10 09:39:48;;;;;;;14.18;8.43;;;29.90;1.00;;;;;;5034177;28;20116;-87
2023/07/10 09:42:18;;;;;;;10.20;6.95;;;30.00;1.00;;;;;;5032173;28;20125;-87
2023/07/10 09:44:50;;;;;;;12.65;8.00;;;29.80;1.00;;;;;;5032951;28;20051;-88
2023/07/10 09:47:22;;;;;;;10.30;7.68;;;29.80;1.00;;;;;;5033120;28;20125;-87
2023/07/10 09:49:53;;;;;;;12.55;8.07;;;29.80;1.00;;;;;;5033634;28;20037;-83
2023/07/10 09:52:24;;;;;;;12.98;9.35;;;30.00;1.00;;;;;;5034072;28;20560;-87
2023/07/10 09:55:00;;;;;;;15.40;8.80;;;30.20;1.00;;;;;;5034358;28;20046;-86
2023/07/10 09:57:28;;;;;;;15.38;10.02;;;30.40;1.00;;;;;;5034561;28;20049;-86
2023/07/10 09:59:59;;;;;;;13.23;7.93;;;30.50;1.00;;;;;;5035092;28;20041;-85
2023/07/10 10:02:34;;;;;;;10.82;7.80;;;30.70;1.00;;;;;;5055998;28;20026;-85
2023/07/10 10:05:07;;;;;;;;;;;30.70;1.00;;;;;;5055062;28;20043;-86
2023/07/10 10:07:40;;;;;;;11.48;7.13;;;30.80;1.00;;;;;;5053238;28;19932;-86
2023/07/10 10:10:29;;;;;;;10.20;7.95;;;30.80;1.00;;;;;;5038593;28;20053;-86
2023/07/10 10:13:04;;;;;;;12.65;9.30;;;30.90;1.00;;;;;;5029376;28;20284;-87
2023/07/10 10:15:44;;;;;;;7.60;6.22;;;30.80;1.00;;;;;;5025053;28;20128;-85
2023/07/10 10:18:24;;;;;;;8.45;6.32;;;30.80;1.00;;;;;;5034589;28;20046;-85
2023/07/10 10:20:53;;;;;;;10.35;6.68;;;30.50;1.00;;;;;;5032679;28;20048;-87
2023/07/10 10:23:30;;;;;;;11.70;7.60;;;30.50;1.00;;;;;;5013553;28;20042;-86
2023/07/10 10:26:13;;;;;;;10.30;7.10;;;30.50;1.00;;;;;;5013408;28;20046;-86
2023/07/10 10:28:49;;;;;;;12.15;7.00;;;30.40;1.00;;;;;;5023275;28;20053;-86
2023/07/10 10:31:26;;;;;;;11.55;7.22;;;30.30;1.00;;;;;;5052932;28;20063;-87
2023/07/10 10:33:59;;;;;;;10.80;7.85;;;30.30;1.00;;;;;;5052243;28;20040;-87
2023/07/10 10:36:37;;;;;;;9.85;7.40;;;30.50;1.00;;;;;;5062963;22;20054;-76
2023/07/10 10:39:20;;;;;;;11.73;7.55;;;30.50;1.00;;;;;;5031804;28;20468;-77
2023/07/10 10:41:55;;;;;;;9.45;7.00;;;30.50;1.00;;;;;;5013931;28;20038;-78
2023/07/10 10:44:49;;;;;;;14.18;6.50;;;30.70;1.00;;;;;;5013104;28;20041;-78
2023/07/10 10:47:40;;;;;;;9.13;8.18;;;30.50;1.00;;;;;;5012579;28;20069;-76
2023/07/10 10:50:35;;;;;;;9.60;7.40;;;30.50;1.00;;;;;;5011491;28;20521;-76
2023/07/10 10:53:17;;;;;;;12.15;7.60;;;30.50;1.00;;;;;;5012143;28;20037;-76
2023/07/10 10:55:53;;;;;;;12.00;8.75;;;30.60;1.00;;;;;;5015649;28;20065;-77
2023/07/10 10:58:38;;;;;;;9.93;7.60;;;30.80;1.00;;;;;;5028517;28;20041;-78
2023/07/10 11:01:20;;;;;;;9.30;6.07;;;30.90;1.00;;;;;;5031244;28;20056;-76
2023/07/10 11:03:51;;;;;;;9.75;6.68;;;31.00;1.00;;;;;;5014062;28;20057;-77
2023/07/10 11:06:45;;;;;;;10.07;6.82;;;30.90;1.00;;;;;;5012246;28;20042;-78
2023/07/10 11:09:16;;;;;;;11.70;7.30;;;30.80;1.00;;;;;;5012524;28;20513;-76
2023/07/10 11:11:44;;;;;;;6.72;5.65;;;30.80;1.00;;;;;;5012709;28;20540;-77
2023/07/10 11:14:12;;;;;;;7.93;7.00;;;30.80;1.00;;;;;;5011272;28;20042;-75
2023/07/10 11:16:41;;;;;;;10.68;5.65;;;30.90;1.00;;;;;;5015400;28;20080;-75
2023/07/10 11:19:15;;;;;;;9.52;6.00;;;30.90;1.00;;;;;;5004803;28;20073;-76
2023/07/10 11:21:44;;;;;;;10.00;6.97;;;31.00;1.00;;;;;;4995233;28;20038;-78
2023/07/10 11:24:18;;;;;;;6.50;5.82;;;31.00;1.00;;;;;;4990967;28;20069;-76
2023/07/10 11:26:52;;;;;;;9.30;5.95;;;31.10;1.00;;;;;;4992557;28;20555;-76
2023/07/10 11:29:28;;;;;;;10.15;7.72;;;30.80;1.00;;;;;;5011912;28;20041;-76
2023/07/10 11:32:01;;;;;;;10.65;6.85;;;30.80;1.00;;;;;;5030950;28;20059;-75
2023/07/10 11:34:53;;;;;;;9.85;7.72;;;30.70;1.00;;;;;;5039522;28;20072;-75
2023/07/10 11:38:05;;;;;;;12.82;6.78;;;30.80;1.00;;;;;;5032677;28;20067;-75
2023/07/10 11:40:53;;;;;;;12.32;7.97;;;30.80;1.00;;;;;;4952098;29;20051;-73
2023/07/10 11:43:48;;;;;;;11.60;7.38;;;30.80;1.00;;;;;;5026760;28;20062;-77
2023/07/10 11:46:22;;;;;;;9.65;5.68;;;30.90;1.00;;;;;;5011363;28;20514;-76
2023/07/10 11:49:13;;;;;;;7.93;5.53;;;31.00;1.00;;;;;;5011245;28;20061;-79
2023/07/10 11:51:41;;;;;;;9.43;6.57;;;31.00;1.00;;;;;;5010133;28;20053;-76
2023/07/10 11:54:44;;;;;;;9.63;6.35;;;31.00;1.00;;;;;;5010229;28;20046;-77
2023/07/10 11:57:17;;;;;;;9.38;5.82;;;31.00;1.00;;;;;;5008924;28;20045;-73
2023/07/10 11:59:48;;;;;;;9.10;5.90;;;31.10;1.00;;;;;;5010694;28;20046;-77
2023/07/10 12:02:28;;;;;;;9.98;6.32;;;31.00;1.00;;;;;;5010743;28;20042;-77
2023/07/10 12:04:58;;;;;;;9.88;7.00;;;31.00;1.00;;;;;;5010696;28;20558;-77
2023/07/10 12:07:25;;;;;;;9.60;6.97;;;30.80;1.00;;;;;;5009969;28;20054;-77
2023/07/10 12:09:56;;;;;;;11.05;6.85;;;30.80;1.00;;;;;;5010054;28;20604;-74
2023/07/10 12:12:31;;;;;;;11.13;7.20;;;30.80;1.00;;;;;;5010734;28;20129;-77
2023/07/10 12:15:02;;;;;;;8.90;6.78;;;30.60;1.00;;;;;;5011026;28;20410;-78
2023/07/10 12:17:32;;;;;;;7.68;6.22;;;30.50;1.00;;;;;;5010661;28;20042;-74
2023/07/10 12:20:02;;;;;;;9.55;6.60;;;30.40;1.00;;;;;;5009775;28;20045;-76
2023/07/10 12:22:36;;;;;;;9.98;6.45;;;30.50;1.00;;;;;;5010834;28;20048;-76
2023/07/10 12:25:13;;;;;;;11.52;7.07;;;30.60;1.00;;;;;;5009484;28;20034;-76
2023/07/10 12:27:43;;;;;;;10.38;7.10;;;30.60;1.00;;;;;;5012071;28;20556;-75
2023/07/10 12:30:21;;;;;;;30.10;26.42;;;30.80;1.00;;;;;;5026703;28;20045;-76
2023/07/10 12:32:51;;;;;;;10.60;7.85;;;30.80;1.00;;;;;;5033098;28;20045;-76
2023/07/10 12:35:27;;;;;;;8.90;6.40;;;30.80;1.00;;;;;;5029943;28;20041;-77
2023/07/10 12:37:55;;;;;;;9.15;7.10;;;30.80;1.00;;;;;;5029070;28;20096;-76
2023/07/10 12:40:22;;;;;;;8.20;6.18;;;30.90;1.00;;;;;;5029577;28;20381;-77
2023/07/10 12:42:51;;;;;;;8.77;7.88;;;30.80;1.00;;;;;;5030271;28;20050;-77
2023/07/10 12:45:27;;;;;;;11.77;7.85;;;30.70;1.00;;;;;;4990396;28;20058;-73
2023/07/10 12:48:01;;;;;;;10.75;7.72;;;30.70;1.00;;;;;;4991420;28;20333;-74
2023/07/10 12:50:37;;;;;;;9.43;7.60;;;30.80;1.00;;;;;;4988281;28;20043;-77
2023/07/10 12:53:06;;;;;;;12.77;8.95;;;30.80;1.00;;;;;;4990318;28;20311;-77
2023/07/10 12:55:34;;;;;;;8.52;5.85;;;30.90;1.00;;;;;;4991372;28;20137;-77
2023/07/10 12:58:05;;;;;;;10.27;6.20;;;31.00;1.00;;;;;;4990404;28;20515;-75
2023/07/10 13:00:48;;;;;;;8.68;6.47;;;30.90;1.00;;;;;;4989728;28;20336;-75
2023/07/10 13:03:25;;;;;;;8.95;6.60;;;30.70;1.00;;;;;;5009834;28;20049;-77
2023/07/10 13:05:59;;;;;;;15.13;7.47;;;30.70;1.00;;;;;;5010214;28;20038;-77